My webcam Meer informatie My webcam


Onweer radar Meer informatie blitzortung!


Regen radar Meer informatie rain snow radar


Bezoek ook deze websites:

Template documentation
and downloads

And another site

Leuven-Template Forum

support.leuven-template



Het weer levert geen direct gevaar op.    Er zijn geen waarschuwingen afgegeven.

METAR rapporten vliegvelden

   
EHVK - Volkel Rnlafb, Netherlands
Afstand tot: ZW 18 km
Gewijzigd: 19-01-2020 14:33
Bewolking  
Bewolking  
   Wind: Noorden 13 km/h
Wind: Noorden 13 km/h
Temperatuur: 7°C
Voelt als: 4°C
Dauwpunt: 3°C
Vochtigheid: 76%
Barometer: 1040 hPa
Bewolking: Bewolking
Zicht: meer dan 10 km
Bewolking: Gedeeltelijk bewolkt 2100 ft,
Grotendeels bewolkt 2400 ft,
Bewolking 3700 ft
EHVK 191333Z AUTO 35007KT 330V040 9999 SCT021 BKN024 OVC037 07/03 Q1040 WHT
EDLV - Niederrhein, Germany
Afstand tot: ZO 25 km
Gewijzigd: 19-01-2020 14:20
Gedeeltelijk bewolkt  
Gedeeltelijk bewolkt  
   Wind: NNW 7.4 km/h
Wind: NNW 7.4 km/h
Temperatuur: 6°C
Voelt als: 4°C
Dauwpunt: 3°C
Vochtigheid: 81%
Barometer: 1039 hPa
Bewolking: Gedeeltelijk bewolkt
Zicht: meer dan 10 km
Bewolking: Gedeeltelijk bewolkt 4100 ft
EDLV 191320Z 34004KT 290V040 9999 SCT041 06/03 Q1039
EHDL - Deelen Rnlafb, Netherlands
Afstand tot: N 35 km
Gewijzigd: 19-01-2020 14:25
Licht bewolkt  
Licht bewolkt  
   Wind: NW 14.8 km/h
Wind: NW 14.8 km/h
Temperatuur: 7°C
Voelt als: 4°C
Dauwpunt: 4°C
Vochtigheid: 81%
Barometer: 1040 hPa
Bewolking: Licht bewolkt
Zicht: meer dan 10 km
Bewolking: Licht bewolkt 2600 ft
EHDL 191325Z AUTO 32008KT 290V360 9999 FEW026 07/04 Q1040 BLU
EHEH - Eindhoven Rnlafb, Netherlands
Afstand tot: ZW 48 km
Gewijzigd: 19-01-2020 14:25
Grotendeels bewolkt  
Grotendeels bewolkt  
   Wind: Noorden 18.5 km/h
Wind: Noorden 18.5 km/h
Temperatuur: 7°C
Voelt als: 4°C
Dauwpunt: 3°C
Vochtigheid: 76%
Barometer: 1040 hPa
Bewolking: Grotendeels bewolkt
Zicht: meer dan 10 km
Bewolking: Licht bewolkt 2100 ft,
Grotendeels bewolkt 3200 ft,
Grotendeels bewolkt 3800 ft
EHEH 191325Z AUTO 01010KT 340V040 9999 FEW021 BKN032 BKN038 07/03 Q1040 BLU 36009KT 9999 FEW025 SCT035
EHGR - Gilze-Rijen Rnla, Netherlands
Afstand tot: WZW 70 km
Gewijzigd: 19-01-2020 14:25
Licht bewolkt  
Licht bewolkt  
   Wind: Noorden 20.4 km/h
Wind: Noorden 20.4 km/h
Temperatuur: 8°C
Voelt als: 5°C
Dauwpunt: 3°C
Vochtigheid: 71%
Barometer: 1040 hPa
Bewolking: Licht bewolkt
Zicht: meer dan 10 km
Bewolking: Licht bewolkt 2200 ft
EHGR 191325Z AUTO 35011KT 300V050 9999 FEW022 08/03 Q1040 BLU
EBBL - Kleine-Brogel(Ba, Belgium
Afstand tot: ZZW 71 km
Gewijzigd: 19-01-2020 14:25
Grotendeels bewolkt  
Grotendeels bewolkt  
   Wind: Noorden 13 km/h
Wind: Noorden 13 km/h
Temperatuur: 6°C
Voelt als: 3°C
Dauwpunt: 2°C
Vochtigheid: 76%
Barometer: 1040 hPa
Bewolking: Grotendeels bewolkt
Zicht: meer dan 10 km
Bewolking: Grotendeels bewolkt 2300 ft
EBBL 191325Z AUTO 01007KT 9999 BKN023/// 06/02 Q1040 WHT

Script ontwikkeld door  Saratoga-weather.org Aangepast voor de template door  Weerstation Leuven

U vindt ons ook hier:

Het Weer Aktueel

European Weather Network

WeatherCloud

Weather Underground

Benelux Weer Netwerk

AWEKAS

Apparatuur in gebruik:

Weerstation
Davis VP2

Weerprogramma
Meteobridge

Weercomputer
My Computer

Webleverancier
My provider

Davis VP2

Meteobridge

My Computer

My provider